createdAt,value
2023-03-15T00:01:38.764Z,1.82
2023-03-15T00:04:07.845Z,1.84
2023-03-15T00:06:36.586Z,1.87
2023-03-15T00:09:05.484Z,1.87
2023-03-15T00:11:34.613Z,1.90
2023-03-15T00:14:03.406Z,1.86
2023-03-15T00:16:32.909Z,1.83
2023-03-15T00:19:01.908Z,1.79
2023-03-15T00:21:30.600Z,1.79
2023-03-15T00:23:59.311Z,1.78
2023-03-15T00:26:33.780Z,1.79
2023-03-15T00:29:02.600Z,1.81
2023-03-15T00:31:31.516Z,1.80
2023-03-15T00:34:00.523Z,1.75
2023-03-15T00:36:29.544Z,1.78
2023-03-15T00:38:58.308Z,1.80
2023-03-15T00:41:27.012Z,1.80
2023-03-15T00:43:55.739Z,1.80
2023-03-15T00:46:24.565Z,1.75
2023-03-15T00:48:53.251Z,1.66
2023-03-15T00:51:24.128Z,1.62
2023-03-15T00:53:53.584Z,1.60
2023-03-15T00:56:25.566Z,1.59
2023-03-15T00:58:54.352Z,1.62
2023-03-15T01:01:25.655Z,1.61
2023-03-15T01:03:54.851Z,1.58
2023-03-15T01:06:26.848Z,1.49
2023-03-15T01:08:57.110Z,1.41
2023-03-15T01:11:28.070Z,1.36
2023-03-15T01:13:58.944Z,1.38
2023-03-15T01:16:28.690Z,1.39
2023-03-15T01:18:57.574Z,1.36
2023-03-15T01:21:26.763Z,1.34
2023-03-15T01:23:55.708Z,1.31
2023-03-15T01:26:24.477Z,1.25
2023-03-15T01:28:53.249Z,1.19
2023-03-15T01:31:28.009Z,1.18
2023-03-15T01:33:57.702Z,1.14
2023-03-15T01:36:26.552Z,1.18
2023-03-15T01:38:55.529Z,1.17
2023-03-15T01:41:25.940Z,1.17
2023-03-15T01:43:54.754Z,1.16
2023-03-15T01:46:34.481Z,1.12
2023-03-15T01:49:17.412Z,1.07
2023-03-15T01:51:51.695Z,1.09
2023-03-15T01:54:33.319Z,1.11
2023-03-15T01:57:06.534Z,1.13
2023-03-15T01:59:40.743Z,1.15
2023-03-15T02:02:09.929Z,1.10
2023-03-15T02:04:46.521Z,1.05
2023-03-15T02:07:18.017Z,1.01
2023-03-15T02:10:12.615Z,1.01
2023-03-15T02:12:48.771Z,1.01
2023-03-15T02:15:17.805Z,1.03
2023-03-15T02:17:48.289Z,1.02
2023-03-15T02:20:27.579Z,0.94
2023-03-15T02:23:05.520Z,0.88
2023-03-15T02:25:43.043Z,0.80
2023-03-15T02:28:15.005Z,0.75
2023-03-15T02:30:45.222Z,0.74
2023-03-15T02:33:27.585Z,0.74
2023-03-15T02:36:06.475Z,0.73
2023-03-15T02:38:35.349Z,0.75
2023-03-15T02:41:04.900Z,0.72
2023-03-15T02:43:35.560Z,0.71
2023-03-15T02:46:05.539Z,0.67
2023-03-15T02:48:36.079Z,0.63
2023-03-15T02:51:04.947Z,0.55
2023-03-15T02:53:34.201Z,0.47
2023-03-15T02:56:03.607Z,0.41
2023-03-15T02:58:32.324Z,0.40
2023-03-15T03:01:01.078Z,0.39
2023-03-15T03:03:29.795Z,0.41
2023-03-15T03:05:58.446Z,0.44
2023-03-15T03:08:27.124Z,0.42
2023-03-15T03:10:55.796Z,0.41
2023-03-15T03:13:24.462Z,0.41
2023-03-15T03:15:58.751Z,0.34
2023-03-15T03:18:29.236Z,0.27
2023-03-15T03:20:59.416Z,0.15
2023-03-15T03:23:28.396Z,0.19
2023-03-15T03:25:58.212Z,0.20
2023-03-15T03:28:29.343Z,0.24
2023-03-15T03:30:59.321Z,0.23
2023-03-15T03:33:28.077Z,0.19
2023-03-15T03:36:02.469Z,0.18
2023-03-15T03:38:31.359Z,0.17
2023-03-15T03:41:00.032Z,0.10
2023-03-15T03:43:28.715Z,0.06
2023-03-15T03:45:57.456Z,0.04
2023-03-15T03:48:26.367Z,0.04
2023-03-15T03:50:55.128Z,0.02
2023-03-15T03:53:23.999Z,0.06
2023-03-15T03:55:54.524Z,0.07
2023-03-15T03:58:23.596Z,0.03
2023-03-15T04:00:55.515Z,0.00
2023-03-15T04:03:27.366Z,-0.05
2023-03-15T04:05:58.501Z,-0.07
2023-03-15T04:08:27.552Z,-0.06
2023-03-15T04:10:57.826Z,-0.09
2023-03-15T04:13:26.622Z,-0.08
2023-03-15T04:15:58.717Z,-0.02
2023-03-15T04:18:28.557Z,0.01
2023-03-15T04:20:57.277Z,0.02
2023-03-15T04:23:25.936Z,-0.01
2023-03-15T04:25:58.210Z,-0.06
2023-03-15T04:28:26.999Z,-0.14
2023-03-15T04:30:58.870Z,-0.20
2023-03-15T04:33:28.975Z,-0.23
2023-03-15T04:35:57.985Z,-0.22
2023-03-15T04:38:27.189Z,-0.19
2023-03-15T04:40:55.896Z,-0.16
2023-03-15T04:43:24.607Z,-0.23
2023-03-15T04:45:53.338Z,-0.23
2023-03-15T04:48:21.999Z,-0.26
2023-03-15T04:50:50.757Z,-0.33
2023-03-15T04:53:19.467Z,-0.36
2023-03-15T04:55:48.328Z,-0.39
2023-03-15T04:58:17.398Z,-0.36
2023-03-15T05:00:46.287Z,-0.32
2023-03-15T05:03:14.959Z,-0.30
2023-03-15T05:05:45.452Z,-0.31
2023-03-15T05:08:14.439Z,-0.30
2023-03-15T05:10:43.358Z,-0.35
2023-03-15T05:13:12.093Z,-0.37
2023-03-15T05:15:41.454Z,-0.35
2023-03-15T05:18:10.175Z,-0.28
2023-03-15T05:20:38.840Z,-0.24
2023-03-15T05:23:08.113Z,-0.27
2023-03-15T05:25:38.359Z,-0.28
2023-03-15T05:28:07.692Z,-0.32
2023-03-15T05:30:36.396Z,-0.36
2023-03-15T05:33:05.180Z,-0.32
2023-03-15T05:35:33.965Z,-0.33
2023-03-15T05:38:03.645Z,-0.28
2023-03-15T05:40:33.364Z,-0.21
2023-03-15T05:43:02.185Z,-0.12
2023-03-15T05:45:30.902Z,-0.08
2023-03-15T05:47:59.717Z,-0.15
2023-03-15T05:50:28.972Z,-0.20
2023-03-15T05:52:57.694Z,-0.22
2023-03-15T05:55:26.438Z,-0.26
2023-03-15T05:57:55.144Z,-0.21
2023-03-15T06:00:23.914Z,-0.21
2023-03-15T06:03:02.891Z,-0.13
2023-03-15T06:05:37.459Z,-0.09
2023-03-15T06:08:06.682Z,-0.03
2023-03-15T06:10:38.506Z,-0.03
2023-03-15T06:13:07.339Z,0.01
2023-03-15T06:15:36.025Z,0.04
2023-03-15T06:18:04.940Z,0.08
2023-03-15T06:20:34.011Z,0.08
2023-03-15T06:23:02.684Z,0.13
2023-03-15T06:25:31.369Z,0.16
2023-03-15T06:28:00.666Z,0.13
2023-03-15T06:30:29.469Z,0.11
2023-03-15T06:32:58.216Z,0.11
2023-03-15T06:35:27.153Z,0.12
2023-03-15T06:37:55.960Z,0.14
2023-03-15T06:40:24.700Z,0.23
2023-03-15T06:42:54.577Z,0.38
2023-03-15T06:45:23.501Z,0.43
2023-03-15T06:47:52.248Z,0.45
2023-03-15T06:50:20.948Z,0.48
2023-03-15T06:52:49.716Z,0.49
2023-03-15T06:55:18.514Z,0.59
2023-03-15T06:57:47.249Z,0.74
2023-03-15T07:00:17.246Z,0.91
2023-03-15T07:02:46.027Z,1.07
2023-03-15T07:05:16.114Z,1.05
2023-03-15T07:07:44.890Z,0.96
2023-03-15T07:10:13.786Z,0.93
2023-03-15T07:12:43.006Z,0.88
2023-03-15T07:15:12.080Z,0.95
2023-03-15T07:17:41.287Z,1.02
2023-03-15T07:20:11.011Z,1.05
2023-03-15T07:22:40.184Z,1.20
2023-03-15T07:25:09.709Z,1.38
2023-03-15T07:27:38.417Z,1.71
2023-03-15T07:30:09.637Z,2.15
2023-03-15T07:32:39.056Z,2.54
2023-03-15T07:35:08.201Z,2.62
2023-03-15T07:37:37.515Z,2.78
2023-03-15T07:40:10.829Z,2.83
2023-03-15T07:42:40.541Z,2.88
2023-03-15T07:45:10.238Z,3.33
2023-03-15T07:47:38.994Z,3.83
2023-03-15T07:50:08.431Z,4.16
2023-03-15T07:52:37.188Z,4.59
2023-03-15T07:55:08.788Z,4.24
2023-03-15T07:57:37.510Z,4.14
2023-03-15T08:00:07.069Z,4.44
2023-03-15T08:02:35.787Z,4.63
2023-03-15T08:05:04.815Z,4.83
2023-03-15T08:07:33.522Z,5.23
2023-03-15T08:10:05.556Z,5.52
2023-03-15T08:12:35.302Z,5.44
2023-03-15T08:15:04.446Z,5.60
2023-03-15T08:18:01.699Z,5.85
2023-03-15T08:20:30.519Z,5.86
2023-03-15T08:22:59.755Z,5.52
2023-03-15T08:25:28.938Z,5.53
2023-03-15T08:27:57.739Z,5.86
2023-03-15T08:30:29.687Z,6.29
2023-03-15T08:32:58.552Z,6.39
2023-03-15T08:35:27.709Z,6.54
2023-03-15T08:37:56.655Z,6.49
2023-03-15T08:40:25.493Z,6.22
2023-03-15T08:42:57.731Z,5.80
2023-03-15T08:45:27.104Z,5.80
2023-03-15T08:47:58.000Z,5.74
2023-03-15T08:50:28.351Z,5.80
2023-03-15T08:52:57.774Z,5.59
2023-03-15T08:55:26.512Z,5.37
2023-03-15T08:57:55.245Z,5.03
2023-03-15T09:00:24.591Z,4.96
2023-03-15T09:02:53.732Z,4.90
2023-03-15T09:05:25.407Z,4.96
2023-03-15T09:07:54.168Z,5.11
2023-03-15T09:10:23.027Z,5.30
2023-03-15T09:12:54.063Z,5.57
2023-03-15T09:15:23.394Z,5.50
2023-03-15T09:17:52.920Z,5.41
2023-03-15T09:20:23.200Z,5.38
2023-03-15T09:22:54.110Z,5.52
2023-03-15T09:25:24.214Z,5.69
2023-03-15T09:27:53.449Z,5.74
2023-03-15T09:30:22.355Z,5.69
2023-03-15T09:32:51.428Z,5.74
2023-03-15T09:35:20.910Z,5.79
2023-03-15T09:37:51.088Z,5.84
2023-03-15T09:40:22.241Z,6.14
2023-03-15T09:43:06.179Z,6.62
2023-03-15T09:45:50.308Z,6.81
2023-03-15T09:48:52.777Z,6.85
2023-03-15T09:51:35.708Z,6.95
2023-03-15T09:54:10.788Z,6.79
2023-03-15T09:56:45.934Z,6.82
2023-03-15T09:59:17.763Z,6.74
2023-03-15T10:01:48.226Z,6.76
2023-03-15T10:04:26.103Z,7.17
2023-03-15T10:07:01.017Z,7.81
2023-03-15T10:09:33.236Z,8.19
2023-03-15T10:12:09.302Z,8.53
2023-03-15T10:14:56.936Z,8.81
2023-03-15T10:18:04.427Z,8.60
2023-03-15T10:20:43.099Z,8.81
2023-03-15T10:23:19.299Z,8.45
2023-03-15T10:25:51.207Z,8.96
2023-03-15T10:28:27.695Z,9.55
2023-03-15T10:31:00.671Z,9.15
2023-03-15T10:33:35.661Z,9.04
2023-03-15T10:36:24.102Z,9.22
2023-03-15T10:38:52.876Z,9.58
2023-03-15T10:41:39.270Z,8.79
2023-03-15T10:44:15.077Z,8.24
2023-03-15T10:47:22.065Z,7.82
2023-03-15T10:49:59.597Z,7.65
2023-03-15T10:52:36.966Z,7.45
2023-03-15T10:55:15.897Z,7.27
2023-03-15T10:57:57.352Z,7.10
2023-03-15T11:00:34.413Z,7.08
2023-03-15T11:03:08.152Z,6.75
2023-03-15T11:05:47.068Z,6.56
2023-03-15T11:08:22.226Z,6.38
2023-03-15T11:10:59.190Z,6.18
2023-03-15T11:13:33.797Z,6.10
2023-03-15T11:16:04.835Z,5.98
2023-03-15T11:18:33.653Z,5.91
2023-03-15T11:21:06.868Z,5.79
2023-03-15T11:23:39.871Z,5.66
2023-03-15T11:26:29.359Z,5.61
2023-03-15T11:29:31.702Z,5.59
2023-03-15T11:32:02.418Z,6.12
2023-03-15T11:34:40.931Z,6.11
2023-03-15T11:37:15.557Z,5.98
2023-03-15T11:39:53.762Z,5.91
2023-03-15T11:42:31.025Z,5.89
2023-03-15T11:45:09.439Z,5.93
2023-03-15T11:47:46.620Z,5.88
2023-03-15T11:50:16.211Z,5.79
2023-03-15T11:52:50.094Z,5.81
2023-03-15T11:55:27.838Z,6.22
2023-03-15T11:57:58.545Z,7.11
2023-03-15T12:00:36.434Z,7.55
2023-03-15T12:03:28.996Z,7.30
2023-03-15T12:06:04.331Z,6.99
2023-03-15T12:08:35.968Z,6.68
2023-03-15T12:11:20.121Z,6.45
2023-03-15T12:13:58.107Z,6.22
2023-03-15T12:16:30.230Z,6.20
2023-03-15T12:19:01.379Z,6.55
2023-03-15T12:21:52.312Z,6.75
2023-03-15T12:24:28.640Z,6.28
2023-03-15T12:27:06.756Z,5.83
2023-03-15T12:29:36.274Z,5.62
2023-03-15T12:32:13.712Z,5.87
2023-03-15T12:34:52.569Z,6.41
2023-03-15T12:37:38.104Z,6.88
2023-03-15T12:40:15.847Z,7.80
2023-03-15T12:42:44.566Z,8.29
2023-03-15T12:45:16.624Z,8.88
2023-03-15T12:47:54.132Z,9.47
2023-03-15T12:50:44.279Z,9.81
2023-03-15T12:53:31.622Z,9.97
2023-03-15T12:56:19.506Z,10.22
2023-03-15T12:58:54.132Z,9.01
2023-03-15T13:01:25.788Z,8.27
2023-03-15T13:03:58.265Z,7.74
2023-03-15T13:06:45.941Z,7.32
2023-03-15T13:09:37.729Z,6.86
2023-03-15T13:12:20.400Z,6.85
2023-03-15T13:15:03.644Z,7.36
2023-03-15T13:17:50.605Z,7.67
2023-03-15T13:21:01.198Z,8.25
2023-03-15T13:23:31.918Z,8.72
2023-03-15T13:26:19.156Z,8.47
2023-03-15T13:28:58.490Z,8.27
2023-03-15T13:31:31.473Z,7.64
2023-03-15T13:34:24.573Z,6.80
2023-03-15T13:36:58.709Z,5.75
2023-03-15T13:39:35.214Z,5.04
2023-03-15T13:42:17.028Z,4.74
2023-03-15T13:44:45.740Z,4.48
2023-03-15T13:47:22.013Z,4.31
2023-03-15T13:49:53.489Z,4.24
2023-03-15T13:52:22.808Z,4.35
2023-03-15T13:54:53.689Z,4.33
2023-03-15T13:57:24.115Z,4.72
2023-03-15T14:00:02.015Z,5.16
2023-03-15T14:02:45.749Z,5.69
2023-03-15T14:05:27.226Z,6.06
2023-03-15T14:08:22.013Z,6.40
2023-03-15T14:11:30.891Z,6.47
2023-03-15T14:14:04.245Z,6.76
2023-03-15T14:16:50.654Z,6.97
2023-03-15T14:19:32.586Z,6.89
2023-03-15T14:22:05.186Z,6.68
2023-03-15T14:24:43.326Z,6.53
2023-03-15T14:27:20.958Z,6.41
2023-03-15T14:29:54.534Z,6.70
2023-03-15T14:32:25.013Z,6.74
2023-03-15T14:35:01.095Z,6.51
2023-03-15T14:37:39.781Z,6.53
2023-03-15T14:40:28.260Z,6.59
2023-03-15T14:42:56.972Z,6.79
2023-03-15T14:45:27.498Z,6.93
2023-03-15T14:48:04.121Z,6.99
2023-03-15T14:50:45.880Z,7.04
2023-03-15T14:53:17.513Z,7.02
2023-03-15T14:55:46.312Z,7.06
2023-03-15T14:58:18.168Z,7.03
2023-03-15T15:00:50.315Z,7.01
2023-03-15T15:03:28.388Z,6.86
2023-03-15T15:05:57.970Z,6.69
2023-03-15T15:08:26.967Z,6.56
2023-03-15T15:10:57.017Z,6.53
2023-03-15T15:13:29.212Z,6.51
2023-03-15T15:15:58.015Z,6.39
2023-03-15T15:18:29.620Z,6.22
2023-03-15T15:21:03.064Z,6.09
2023-03-15T15:23:57.528Z,5.90
2023-03-15T15:26:29.465Z,5.74
2023-03-15T15:28:58.263Z,5.65
2023-03-15T15:31:29.076Z,5.56
2023-03-15T15:33:58.023Z,5.52
2023-03-15T15:36:32.382Z,5.48
2023-03-15T15:39:06.436Z,5.42
2023-03-15T15:41:35.731Z,5.36
2023-03-15T15:44:04.636Z,5.29
2023-03-15T15:46:33.433Z,5.26
2023-03-15T15:49:02.128Z,5.21
2023-03-15T15:51:34.512Z,5.13
2023-03-15T15:54:04.590Z,5.00
2023-03-15T15:57:01.192Z,4.95
2023-03-15T15:59:31.037Z,4.92
2023-03-15T16:02:01.758Z,4.90
2023-03-15T16:04:32.750Z,4.84
2023-03-15T16:07:03.720Z,4.78
2023-03-15T16:09:36.250Z,4.67
2023-03-15T16:12:16.581Z,4.54
2023-03-15T16:14:45.340Z,4.46
2023-03-15T16:17:18.664Z,4.38
2023-03-15T16:19:47.702Z,4.25
2023-03-15T16:22:19.087Z,4.20
2023-03-15T16:24:52.442Z,4.16
2023-03-15T16:27:25.163Z,4.08
2023-03-15T16:29:55.982Z,4.03
2023-03-15T16:32:37.197Z,4.01
2023-03-15T16:35:16.523Z,3.99
2023-03-15T16:37:46.301Z,3.98
2023-03-15T16:40:22.263Z,3.94
2023-03-15T16:42:50.926Z,3.91
2023-03-15T16:45:20.216Z,3.88
2023-03-15T16:47:48.961Z,3.84
2023-03-15T16:50:17.842Z,3.77
2023-03-15T16:52:49.676Z,3.66
2023-03-15T16:55:24.336Z,3.55
2023-03-15T16:57:53.157Z,3.47
2023-03-15T17:00:22.600Z,3.33
2023-03-15T17:02:53.132Z,3.17
2023-03-15T17:05:24.368Z,3.05
2023-03-15T17:07:54.792Z,2.90
2023-03-15T17:10:27.552Z,2.77
2023-03-15T17:12:59.319Z,2.65
2023-03-15T17:15:29.230Z,2.56
2023-03-15T17:17:58.148Z,2.49
2023-03-15T17:20:31.044Z,2.47
2023-03-15T17:23:04.887Z,2.39
2023-03-15T17:25:34.378Z,2.27
2023-03-15T17:28:04.799Z,2.11
2023-03-15T17:30:36.485Z,1.97
2023-03-15T17:33:05.930Z,1.80
2023-03-15T17:35:38.425Z,1.67
2023-03-15T17:38:15.601Z,1.56
2023-03-15T17:40:45.150Z,1.42
2023-03-15T17:43:16.033Z,1.34
2023-03-15T17:45:45.190Z,1.31
2023-03-15T17:48:13.909Z,1.22
2023-03-15T17:50:44.452Z,1.14
2023-03-15T17:53:16.858Z,1.08
2023-03-15T17:55:48.078Z,1.11
2023-03-15T17:58:20.115Z,1.15
2023-03-15T18:00:56.482Z,1.11
2023-03-15T18:03:25.995Z,0.99
2023-03-15T18:05:54.940Z,0.86
2023-03-15T18:08:24.897Z,0.79
2023-03-15T18:10:54.334Z,0.70
2023-03-15T18:13:24.043Z,0.57
2023-03-15T18:15:53.146Z,0.43
2023-03-15T18:18:21.916Z,0.40
2023-03-15T18:20:50.646Z,0.38
2023-03-15T18:23:20.032Z,0.36
2023-03-15T18:25:48.852Z,0.32
2023-03-15T18:28:17.588Z,0.23
2023-03-15T18:30:46.499Z,0.10
2023-03-15T18:33:15.999Z,-0.03
2023-03-15T18:35:44.782Z,-0.03
2023-03-15T18:38:13.560Z,-0.03
2023-03-15T18:40:42.675Z,-0.04
2023-03-15T18:43:14.229Z,-0.08
2023-03-15T18:45:43.387Z,-0.16
2023-03-15T18:48:12.237Z,-0.28
2023-03-15T18:50:41.040Z,-0.40
2023-03-15T18:53:11.766Z,-0.49
2023-03-15T18:55:40.822Z,-0.63
2023-03-15T18:58:12.923Z,-0.71
2023-03-15T19:00:42.020Z,-0.65
2023-03-15T19:03:11.421Z,-0.73
2023-03-15T19:05:40.240Z,-0.74
2023-03-15T19:08:09.077Z,-0.73
2023-03-15T19:10:37.748Z,-0.70
2023-03-15T19:13:06.467Z,-0.69
2023-03-15T19:15:35.376Z,-0.78
2023-03-15T19:18:04.120Z,-0.87
2023-03-15T19:20:34.889Z,-0.93
2023-03-15T19:23:03.667Z,-0.98
2023-03-15T19:25:32.328Z,-1.05
2023-03-15T19:28:01.071Z,-1.10
2023-03-15T19:30:30.959Z,-1.08
2023-03-15T19:33:01.073Z,-0.93
2023-03-15T19:35:31.853Z,-0.81
2023-03-15T19:38:01.638Z,-0.75
2023-03-15T19:40:30.542Z,-0.65
2023-03-15T19:42:59.361Z,-0.59
2023-03-15T19:45:28.448Z,-0.56
2023-03-15T19:47:57.364Z,-0.68
2023-03-15T19:50:30.919Z,-0.76
2023-03-15T19:53:00.400Z,-0.83
2023-03-15T19:55:31.581Z,-0.85
2023-03-15T19:58:00.615Z,-0.83
2023-03-15T20:00:29.381Z,-0.79
2023-03-15T20:02:58.248Z,-0.76
2023-03-15T20:05:27.136Z,-0.75
2023-03-15T20:07:56.045Z,-0.71
2023-03-15T20:10:24.762Z,-0.68
2023-03-15T20:12:59.092Z,-0.61
2023-03-15T20:15:35.823Z,-0.69
2023-03-15T20:18:08.112Z,-0.84
2023-03-15T20:20:36.838Z,-0.96
2023-03-15T20:23:05.531Z,-0.99
2023-03-15T20:25:34.551Z,-1.02
2023-03-15T20:28:04.276Z,-1.08
2023-03-15T20:30:32.987Z,-1.12
2023-03-15T20:33:01.751Z,-1.15
2023-03-15T20:35:30.835Z,-1.11
2023-03-15T20:38:06.648Z,-1.08
2023-03-15T20:40:39.032Z,-1.14
2023-03-15T20:43:08.028Z,-1.19
2023-03-15T20:45:36.719Z,-1.24
2023-03-15T20:48:06.054Z,-1.29
2023-03-15T20:50:34.737Z,-1.33
2023-03-15T20:53:05.191Z,-1.40
2023-03-15T20:55:33.928Z,-1.46
2023-03-15T20:58:02.587Z,-1.52
2023-03-15T21:00:31.938Z,-1.58
2023-03-15T21:03:15.208Z,-1.57
2023-03-15T21:05:50.977Z,-1.52
2023-03-15T21:08:19.609Z,-1.43
2023-03-15T21:10:48.321Z,-1.33
2023-03-15T21:13:17.423Z,-1.38
2023-03-15T21:15:46.868Z,-1.50
2023-03-15T21:18:17.657Z,-1.51
2023-03-15T21:20:46.386Z,-1.69
2023-03-15T21:23:15.076Z,-1.76
2023-03-15T21:25:43.800Z,-1.76
2023-03-15T21:28:12.472Z,-1.73
2023-03-15T21:30:41.157Z,-1.78
2023-03-15T21:33:09.972Z,-1.74
2023-03-15T21:35:38.813Z,-1.59
2023-03-15T21:38:07.521Z,-1.53
2023-03-15T21:40:36.253Z,-1.65
2023-03-15T21:43:04.947Z,-1.72
2023-03-15T21:45:33.822Z,-1.78
2023-03-15T21:48:03.375Z,-1.77
2023-03-15T21:50:32.205Z,-1.67
2023-03-15T21:53:01.793Z,-1.54
2023-03-15T21:55:33.773Z,-1.49
2023-03-15T21:58:04.686Z,-1.43
2023-03-15T22:00:33.454Z,-1.33
2023-03-15T22:03:02.134Z,-1.22
2023-03-15T22:05:33.149Z,-1.13
2023-03-15T22:08:02.419Z,-1.00
2023-03-15T22:10:31.203Z,-0.96
2023-03-15T22:13:00.001Z,-0.97
2023-03-15T22:15:28.778Z,-1.00
2023-03-15T22:17:57.445Z,-1.07
2023-03-15T22:20:26.570Z,-1.07
2023-03-15T22:22:55.514Z,-1.08
2023-03-15T22:25:24.252Z,-1.05
2023-03-15T22:27:52.944Z,-1.02
2023-03-15T22:30:21.877Z,-1.00
2023-03-15T22:32:50.775Z,-0.95
2023-03-15T22:35:19.550Z,-0.93
2023-03-15T22:37:49.348Z,-0.92
2023-03-15T22:40:18.779Z,-0.96
2023-03-15T22:42:49.658Z,-0.99
2023-03-15T22:45:21.526Z,-1.04
2023-03-15T22:47:50.367Z,-1.09
2023-03-15T22:50:19.079Z,-1.13
2023-03-15T22:52:48.390Z,-1.20
2023-03-15T22:55:19.190Z,-1.24
2023-03-15T22:57:49.044Z,-1.29
2023-03-15T23:00:22.219Z,-1.28
2023-03-15T23:02:51.257Z,-1.21
2023-03-15T23:05:20.029Z,-1.19
2023-03-15T23:07:48.816Z,-1.20
2023-03-15T23:10:17.523Z,-1.24
2023-03-15T23:12:46.232Z,-1.28
2023-03-15T23:15:15.637Z,-1.34
2023-03-15T23:17:46.825Z,-1.40
2023-03-15T23:20:17.868Z,-1.46
2023-03-15T23:22:47.917Z,-1.51
2023-03-15T23:25:20.391Z,-1.57
2023-03-15T23:27:50.787Z,-1.62
2023-03-15T23:30:19.608Z,-1.61
2023-03-15T23:32:50.998Z,-1.56
2023-03-15T23:35:19.948Z,-1.50
2023-03-15T23:37:50.039Z,-1.41
2023-03-15T23:40:20.431Z,-1.37
2023-03-15T23:42:58.861Z,-1.35
2023-03-15T23:45:30.156Z,-1.37
2023-03-15T23:47:58.989Z,-1.40
2023-03-15T23:50:28.579Z,-1.42
2023-03-15T23:52:57.594Z,-1.41
2023-03-15T23:55:26.348Z,-1.43
2023-03-15T23:57:55.043Z,-1.44
